Time;durP1;ratioP1;P1;durP2;ratioP2;P2;SDS_P1;SDS_P2;PMS_P1;PMS_P2;Temp;Humidity;BMP_temperature;BMP_pressure;BME280_temperature;BME280_humidity;BME280_pressure;Samples;Min_cycle;Max_cycle;Signal;HPM_P1;HPM_P2
2021/12/22 00:00:56;;;;;;;120.70;52.67;;;;;;;-6.85;81.60;98930.06;1764968;81;21008;-57
2021/12/22 00:03:24;;;;;;;136.80;57.27;;;;;;;-6.86;81.76;98931.53;1765379;80;21409;-58
2021/12/22 00:05:52;;;;;;;135.00;54.15;;;;;;;-6.87;81.75;98925.43;1765054;79;21433;-57
2021/12/22 00:08:19;;;;;;;109.47;40.63;;;;;;;-6.84;81.83;98921.66;1762384;80;21033;-57
2021/12/22 00:10:46;;;;;;;78.97;31.20;;;;;;;-6.77;81.78;98931.13;1757379;81;20937;-56
2021/12/22 00:13:13;;;;;;;76.67;33.90;;;;;;;-6.77;81.74;98935.91;1756524;81;20955;-57
2021/12/22 00:15:40;;;;;;;107.22;42.78;;;;;;;-6.76;81.73;98934.93;1743682;80;20997;-58
2021/12/22 00:18:07;;;;;;;102.27;45.55;;;;;;;-6.75;82.11;98938.40;1738476;82;20953;-57
2021/12/22 00:20:34;;;;;;;79.05;33.13;;;;;;;-6.69;81.95;98939.13;1764956;81;21010;-57
2021/12/22 00:23:01;;;;;;;84.17;35.13;;;;;;;-6.63;81.81;98935.42;1765109;80;20958;-57
2021/12/22 00:25:28;;;;;;;121.45;50.05;;;;;;;-6.60;81.68;98937.75;1764909;80;21466;-57
2021/12/22 00:27:57;;;;;;;113.45;47.53;;;;;;;-6.60;81.62;98939.07;1764864;80;39749;-57
2021/12/22 00:30:25;;;;;;;129.38;52.85;;;;;;;-6.59;81.74;98938.58;1765090;80;20962;-57
2021/12/22 00:32:55;;;;;;;89.25;39.25;;;;;;;-6.57;81.97;98944.56;1765043;80;20989;-57
2021/12/22 00:35:26;;;;;;;48.08;22.22;;;;;;;-6.51;81.70;98941.80;1765017;80;21033;-57
2021/12/22 00:37:51;;;;;;;90.70;40.88;;;;;;;-6.51;81.36;98945.75;1766313;80;20962;-56
2021/12/22 00:40:18;;;;;;;111.45;44.05;;;;;;;-6.57;81.50;98945.39;1775806;79;22055;-57
2021/12/22 00:42:45;;;;;;;96.47;37.95;;;;;;;-6.54;81.56;98949.52;1745972;80;21022;-57
2021/12/22 00:45:12;;;;;;;104.63;41.28;;;;;;;-6.52;82.08;98946.73;1765516;79;20997;-57
2021/12/22 00:47:38;;;;;;;71.92;28.55;;;;;;;-6.50;81.99;98950.88;1719461;80;21054;-57
2021/12/22 00:50:06;;;;;;;83.92;35.80;;;;;;;-6.40;82.05;98950.34;1780464;79;20996;-57
2021/12/22 00:52:33;;;;;;;81.17;36.13;;;;;;;-6.36;81.95;98946.91;1746087;80;21015;-57
2021/12/22 00:54:59;;;;;;;80.65;31.85;;;;;;;-6.30;81.86;98951.10;1764903;81;20985;-58
2021/12/22 00:57:27;;;;;;;87.60;31.82;;;;;;;-6.25;81.88;98960.69;1736422;82;21457;-57
2021/12/22 00:59:54;;;;;;;111.17;44.38;;;;;;;-6.17;81.63;98960.44;1764988;81;21450;-57
2021/12/22 01:02:21;;;;;;;121.30;55.23;;;;;;;-6.20;81.35;98958.11;1765502;80;20986;-57
2021/12/22 01:04:48;;;;;;;158.90;65.55;;;;;;;-6.26;81.23;98958.21;1749452;81;21351;-57
2021/12/22 01:07:14;;;;;;;150.22;62.53;;;;;;;-6.26;81.09;98952.45;1777752;80;20926;-57
2021/12/22 01:09:42;;;;;;;156.22;60.52;;;;;;;-6.34;80.93;98952.85;1777792;80;21027;-56
2021/12/22 01:12:09;;;;;;;157.00;65.92;;;;;;;-6.38;81.17;98963.38;1778073;80;21302;-57
2021/12/22 01:14:37;;;;;;;162.85;69.10;;;;;;;-6.45;81.72;98968.41;1765470;80;21026;-57
2021/12/22 01:17:06;;;;;;;150.30;58.92;;;;;;;-6.42;81.85;98968.10;1760149;80;21331;-56
2021/12/22 01:22:28;;;;;;;104.25;39.03;;;;;;;-6.37;81.37;98961.91;1688406;83;20143;-56
2021/12/22 01:24:59;;;;;;;139.47;57.95;;;;;;;-6.38;81.36;98959.42;1748862;81;21391;-57
2021/12/22 01:27:20;;;;;;;138.65;54.93;;;;;;;-6.43;81.50;98959.86;1738922;82;21036;-56
2021/12/22 01:29:44;;;;;;;116.85;50.83;;;;;;;-6.41;81.54;98979.02;1740239;82;21017;-56
2021/12/22 01:32:13;;;;;;;128.38;58.02;;;;;;;-6.42;82.00;98974.70;1765192;81;20931;-57
2021/12/22 01:34:39;;;;;;;130.75;52.30;;;;;;;-6.39;82.50;98977.06;1774207;80;21463;-56
2021/12/22 01:37:06;;;;;;;144.02;61.53;;;;;;;-6.32;82.10;98978.62;1751875;80;20981;-57
2021/12/22 01:39:33;;;;;;;133.97;54.15;;;;;;;-6.27;82.05;98989.05;1745616;82;21024;-57
2021/12/22 01:42:00;;;;;;;111.60;48.63;;;;;;;-6.22;82.27;98978.55;1746566;82;21575;-57
2021/12/22 01:44:46;;;;;;;132.50;54.35;;;;;;;-6.17;82.04;98980.23;1765121;81;21458;-57
2021/12/22 01:49:51;;;;;;;117.33;49.90;;;;;;;-6.11;81.87;98974.36;1747373;82;20980;-57
2021/12/22 01:52:19;;;;;;;121.37;43.63;;;;;;;-6.14;81.82;98975.98;1741594;81;20966;-57
2021/12/22 01:55:04;;;;;;;106.85;41.90;;;;;;;-6.12;81.77;98978.81;1778518;79;21415;-57
2021/12/22 01:57:34;;;;;;;102.40;46.13;;;;;;;-6.13;81.73;98986.39;1745933;80;20997;-57
2021/12/22 02:00:02;;;;;;;113.55;46.90;;;;;;;-6.16;81.77;98976.61;1724483;82;21009;-57
2021/12/22 02:02:29;;;;;;;119.97;50.58;;;;;;;-6.12;81.85;98974.85;1747977;80;22077;-57
2021/12/22 02:04:56;;;;;;;113.88;46.80;;;;;;;-6.08;81.72;98976.20;1747714;80;21433;-57
2021/12/22 02:07:23;;;;;;;125.40;52.03;;;;;;;-6.07;81.70;98975.70;1775761;80;21199;-57
2021/12/22 02:10:11;;;;;;;133.12;51.05;;;;;;;-6.05;81.63;98974.59;1740589;82;21012;-56
2021/12/22 02:12:35;;;;;;;94.35;40.75;;;;;;;-6.04;81.65;98978.89;1739545;82;20978;-57
2021/12/22 02:14:59;;;;;;;104.15;43.63;;;;;;;-6.02;81.53;98979.56;1736678;82;20989;-56
2021/12/22 02:17:27;;;;;;;133.93;53.45;;;;;;;-6.05;81.47;98981.69;1740402;82;20958;-56
2021/12/22 02:19:54;;;;;;;119.87;52.30;;;;;;;-6.08;81.49;98973.55;1765015;81;21381;-56
2021/12/22 02:22:22;;;;;;;132.82;54.90;;;;;;;-6.05;81.47;98982.52;1764979;80;20946;-57
2021/12/22 02:24:55;;;;;;;138.83;57.83;;;;;;;-6.08;81.45;98974.05;1751969;80;21020;-56
2021/12/22 02:27:37;;;;;;;127.30;58.28;;;;;;;-6.10;81.67;98976.84;1759900;81;21564;-56
2021/12/22 02:30:03;;;;;;;140.55;54.08;;;;;;;-6.05;81.58;98980.36;1740007;82;21025;-57
2021/12/22 02:35:14;;;;;;;136.10;57.48;;;;;;;-6.03;81.37;98978.39;1775515;79;21013;-56
2021/12/22 02:37:46;;;;;;;118.28;50.83;;;;;;;-6.02;81.55;98976.09;1748975;81;20965;-57
2021/12/22 02:40:16;;;;;;;110.95;46.35;;;;;;;-6.02;81.18;98974.28;1744845;81;21008;-57
2021/12/22 02:42:45;;;;;;;121.35;49.58;;;;;;;-6.07;81.27;98977.02;1753340;81;21402;-56
2021/12/22 02:45:15;;;;;;;105.72;38.17;;;;;;;-6.07;81.57;98981.80;1748364;80;20973;-56
2021/12/22 02:47:42;;;;;;;51.73;21.05;;;;;;;-5.99;81.49;98977.09;1748188;81;20950;-56
2021/12/22 02:50:10;;;;;;;98.58;38.28;;;;;;;-5.95;81.42;98977.64;1740375;82;22056;-55
2021/12/22 02:53:27;;;;;;;120.28;44.83;;;;;;;-5.94;81.43;98981.45;1741701;82;20953;-57
2021/12/22 02:55:06;;;;;;;130.90;50.38;;;;;;;-5.93;81.40;98971.72;1734628;82;21457;-57
2021/12/22 02:57:44;;;;;;;106.17;46.98;;;;;;;-5.90;81.50;98974.84;1752075;81;21443;-57
2021/12/22 03:00:33;;;;;;;88.90;36.60;;;;;;;-5.86;81.44;98977.53;1764374;81;21006;-57
2021/12/22 03:03:15;;;;;;;126.40;51.98;;;;;;;-5.83;81.32;98985.63;1763683;80;20993;-57
2021/12/22 03:05:36;;;;;;;67.40;30.95;;;;;;;-5.87;81.30;98986.92;1762388;79;20986;-57
2021/12/22 03:08:03;;;;;;;126.02;54.63;;;;;;;-5.87;80.99;98986.43;1765225;80;21391;-56
2021/12/22 03:10:30;;;;;;;148.10;53.00;;;;;;;-5.95;81.14;98984.24;1764825;80;21832;-57
2021/12/22 03:13:02;;;;;;;103.75;41.10;;;;;;;-5.92;81.40;98981.29;1766836;80;20985;-57
2021/12/22 03:15:26;;;;;;;103.07;43.28;;;;;;;-5.87;81.20;98983.80;1757409;80;21032;-56
2021/12/22 03:17:53;;;;;;;102.72;44.13;;;;;;;-5.84;81.27;98990.57;1773286;80;21387;-57
2021/12/22 03:20:19;;;;;;;105.80;44.00;;;;;;;-5.83;81.16;98993.05;1764847;79;21045;-57
2021/12/22 03:22:47;;;;;;;114.45;47.93;;;;;;;-5.81;81.13;98987.16;1765067;80;21403;-57
2021/12/22 03:25:16;;;;;;;137.28;54.60;;;;;;;-5.81;81.14;98993.75;1765378;80;21013;-56
2021/12/22 03:27:49;;;;;;;154.25;65.15;;;;;;;-5.81;81.22;98997.72;1773309;80;21032;-56
2021/12/22 03:30:19;;;;;;;145.65;57.48;;;;;;;-5.82;81.24;98993.88;1748365;82;21015;-57
2021/12/22 03:32:46;;;;;;;119.82;46.55;;;;;;;-5.82;81.35;98999.98;1707776;81;21028;-57
2021/12/22 03:35:17;;;;;;;113.50;46.30;;;;;;;-5.80;81.30;98991.94;1752614;80;22079;-56
2021/12/22 03:37:43;;;;;;;;;;;;;;;-5.76;81.30;98994.60;1774624;80;21110;-56
2021/12/22 03:40:10;;;;;;;94.40;40.53;;;;;;;-5.74;81.49;98992.14;1747252;80;20163;-57
2021/12/22 03:42:37;;;;;;;66.87;27.42;;;;;;;-5.69;81.57;98999.62;1743839;82;20969;-56
2021/12/22 03:45:05;;;;;;;71.42;29.15;;;;;;;-5.62;81.42;98995.87;1762417;81;20996;-56
2021/12/22 03:47:32;;;;;;;97.40;40.63;;;;;;;-5.60;81.15;98988.63;1755825;81;21361;-57
2021/12/22 03:50:00;;;;;;;82.88;36.95;;;;;;;-5.63;81.02;98990.27;1755213;81;21480;-57
2021/12/22 03:52:27;;;;;;;79.90;34.23;;;;;;;-5.66;80.95;98997.98;1739225;81;20958;-57
2021/12/22 03:54:58;;;;;;;75.00;33.67;;;;;;;-5.66;80.96;98997.98;1764902;81;21002;-57
2021/12/22 03:57:22;;;;;;;82.50;33.90;;;;;;;-5.63;81.05;98992.41;1777678;78;21675;-56
2021/12/22 03:59:49;;;;;;;79.27;34.13;;;;;;;-5.59;80.92;98992.43;1740951;82;21012;-56
2021/12/22 04:02:19;;;;;;;79.92;35.52;;;;;;;-5.58;80.90;98986.66;1744222;81;20973;-56
2021/12/22 04:04:47;;;;;;;66.05;31.45;;;;;;;-5.57;80.96;98990.95;1740458;82;21020;-56
2021/12/22 04:07:15;;;;;;;69.58;30.80;;;;;;;-5.53;80.97;98986.55;1765533;79;20998;-56
2021/12/22 04:09:42;;;;;;;76.70;27.70;;;;;;;-5.50;80.98;98993.32;1767293;80;20993;-56
2021/12/22 04:12:10;;;;;;;73.12;31.95;;;;;;;-5.46;80.91;98993.37;1767110;80;22244;-56
2021/12/22 04:14:37;;;;;;;61.15;28.40;;;;;;;-5.45;80.80;98999.81;1759382;81;21386;-56
2021/12/22 04:17:04;;;;;;;81.22;38.33;;;;;;;-5.41;80.80;98999.00;1743289;81;21013;-56
2021/12/22 04:19:31;;;;;;;82.67;35.65;;;;;;;-5.43;80.78;98993.05;1753278;80;20969;-56
2021/12/22 04:21:58;;;;;;;85.17;36.90;;;;;;;-5.44;80.86;98989.58;1769946;79;21083;-56
2021/12/22 04:24:25;;;;;;;62.00;27.60;;;;;;;-5.40;80.98;98986.95;1731057;82;21374;-56
2021/12/22 04:26:52;;;;;;;89.70;44.95;;;;;;;-5.34;80.92;98989.48;1745932;82;20957;-56
2021/12/22 04:29:19;;;;;;;92.47;45.17;;;;;;;-5.34;80.86;98987.33;1765104;81;21446;-56
2021/12/22 04:31:46;;;;;;;149.60;74.53;;;;;;;-5.33;80.83;98980.56;1748762;80;21429;-56
2021/12/22 04:34:13;;;;;;;170.82;79.67;;;;;;;-5.38;80.86;98988.14;1740530;82;21104;-56
2021/12/22 04:36:40;;;;;;;149.38;73.35;;;;;;;-5.34;80.98;98983.37;1765090;80;21265;-56
2021/12/22 04:39:08;;;;;;;99.58;43.35;;;;;;;-5.34;80.97;98988.16;1764950;80;20954;-56
2021/12/22 04:41:35;;;;;;;81.93;37.00;;;;;;;-5.34;81.14;98982.05;1741107;82;20977;-56
2021/12/22 04:44:02;;;;;;;87.25;36.65;;;;;;;-5.35;81.17;98987.82;1765198;81;21183;-56
2021/12/22 04:46:29;;;;;;;86.70;39.88;;;;;;;-5.32;82.11;98989.31;1773672;80;21425;-56
2021/12/22 04:48:56;;;;;;;93.45;39.35;;;;;;;-5.30;81.44;98992.63;1777954;80;21382;-56
2021/12/22 04:51:27;;;;;;;115.30;43.28;;;;;;;-5.29;81.53;98999.10;1738371;82;20985;-56
2021/12/22 04:53:58;;;;;;;73.85;26.25;;;;;;;-5.30;81.58;98998.73;1746096;82;21008;-56
2021/12/22 04:56:20;;;;;;;79.95;31.82;;;;;;;-5.32;81.94;98998.07;1750217;81;21019;-56
2021/12/22 04:58:47;;;;;;;75.50;30.85;;;;;;;-5.38;82.02;99004.00;1745825;80;21001;-56
2021/12/22 05:01:14;;;;;;;75.97;34.27;;;;;;;-5.39;82.18;98997.85;1765110;81;22084;-56
2021/12/22 05:03:41;;;;;;;88.42;39.38;;;;;;;-5.43;82.35;98993.88;1754466;80;21453;-56
2021/12/22 05:06:08;;;;;;;97.85;39.55;;;;;;;-5.44;82.70;98993.55;1746944;80;21043;-56
2021/12/22 05:08:35;;;;;;;97.65;40.20;;;;;;;-5.43;82.54;98997.02;1751538;81;20937;-56
2021/12/22 05:11:02;;;;;;;77.47;34.53;;;;;;;-5.42;82.66;98997.34;1746075;81;20937;-56
2021/12/22 05:13:30;;;;;;;68.42;31.00;;;;;;;-5.40;82.74;98993.55;1756553;81;21430;-56
2021/12/22 05:15:57;;;;;;;68.85;32.45;;;;;;;-5.36;82.78;98992.77;1747600;80;21991;-56
2021/12/22 05:18:36;;;;;;;111.35;51.45;;;;;;;-5.34;83.09;98996.08;1754406;81;20992;-56
2021/12/22 05:20:53;;;;;;;88.70;39.45;;;;;;;-5.30;82.66;99001.87;1748141;80;21424;-56
2021/12/22 05:23:20;;;;;;;79.20;34.40;;;;;;;-5.27;82.94;99001.09;1738505;82;21452;-56
2021/12/22 05:25:47;;;;;;;92.37;39.67;;;;;;;-5.24;82.75;98998.62;1768910;80;21406;-56
2021/12/22 05:28:14;;;;;;;81.25;29.67;;;;;;;-5.22;82.81;98997.97;1773288;80;20953;-56
2021/12/22 05:30:40;;;;;;;89.67;38.13;;;;;;;-5.19;82.64;99002.47;1744596;82;20982;-56
2021/12/22 05:33:07;;;;;;;99.35;37.80;;;;;;;-5.21;82.58;99002.30;1717264;82;20973;-56
2021/12/22 05:35:34;;;;;;;99.90;38.90;;;;;;;-5.23;82.74;99002.92;1765052;81;20966;-56
2021/12/22 05:38:01;;;;;;;79.95;36.08;;;;;;;-5.22;82.70;99004.58;1764689;80;21419;-56
2021/12/22 05:40:28;;;;;;;94.05;36.23;;;;;;;-5.25;82.70;99004.40;1769108;80;21036;-56
2021/12/22 05:42:57;;;;;;;63.42;30.17;;;;;;;-5.22;82.84;99000.61;1764838;80;20946;-56
2021/12/22 05:45:25;;;;;;;55.33;27.20;;;;;;;-5.17;82.93;98998.34;1765471;81;20946;-55
2021/12/22 05:47:53;;;;;;;55.43;23.47;;;;;;;-5.17;83.08;99008.42;1743989;82;21037;-56
2021/12/22 05:50:21;;;;;;;84.85;34.15;;;;;;;-5.17;83.60;99003.13;1775149;80;21266;-56
2021/12/22 05:52:49;;;;;;;120.97;52.23;;;;;;;-5.13;84.53;99005.81;1749172;80;21421;-56
2021/12/22 05:55:15;;;;;;;62.70;29.45;;;;;;;-5.08;84.24;99014.58;1770579;80;21413;-56
2021/12/22 05:57:43;;;;;;;64.15;31.25;;;;;;;-5.01;83.59;99014.80;1767061;80;20985;-56
2021/12/22 06:00:11;;;;;;;80.15;31.35;;;;;;;-4.95;84.00;99015.50;1742930;82;21023;-56
2021/12/22 06:02:38;;;;;;;82.25;37.70;;;;;;;-4.89;83.59;99018.33;1750131;81;21744;-56
2021/12/22 06:05:06;;;;;;;56.65;28.40;;;;;;;-4.88;83.46;99018.66;1748282;81;20988;-59
2021/12/22 06:07:32;;;;;;;52.55;24.52;;;;;;;-4.86;83.55;99025.13;1748269;81;21457;-59
2021/12/22 06:09:59;;;;;;;91.22;38.08;;;;;;;-4.83;83.58;99030.09;1764806;81;21044;-59
2021/12/22 06:12:26;;;;;;;73.60;28.05;;;;;;;-4.78;83.49;99029.14;1748057;80;21060;-58
2021/12/22 06:14:53;;;;;;;69.05;30.62;;;;;;;-4.82;83.19;99033.08;1744762;82;21317;-59
2021/12/22 06:17:20;;;;;;;221.45;63.73;;;;;;;-4.84;83.39;99034.56;1754559;80;20969;-59
2021/12/22 06:19:47;;;;;;;92.72;36.77;;;;;;;-4.85;83.18;99034.72;1775887;79;21453;-58
2021/12/22 06:22:14;;;;;;;73.22;29.67;;;;;;;-4.86;83.31;99033.89;1758145;80;20946;-59
2021/12/22 06:24:41;;;;;;;75.12;32.40;;;;;;;-4.84;83.33;99037.70;1765058;80;21017;-59
2021/12/22 06:27:08;;;;;;;85.17;36.93;;;;;;;-4.80;83.37;99039.03;1749049;80;21446;-56
2021/12/22 06:29:35;;;;;;;119.45;47.40;;;;;;;-4.76;83.35;99046.17;1762144;80;20997;-56
2021/12/22 06:32:03;;;;;;;258.57;91.35;;;;;;;-4.77;83.36;99047.16;1740638;82;21432;-56
2021/12/22 06:34:30;;;;;;;105.32;45.35;;;;;;;-4.73;84.29;99043.20;1764911;79;21536;-56
2021/12/22 06:36:57;;;;;;;91.60;37.83;;;;;;;-4.66;83.84;99050.84;1741620;82;20980;-56
2021/12/22 06:39:23;;;;;;;393.12;132.72;;;;;;;-4.60;83.73;99057.67;1747344;81;21320;-56
2021/12/22 06:41:50;;;;;;;121.02;47.20;;;;;;;-4.56;83.63;99055.52;1741453;82;21039;-56
2021/12/22 06:44:17;;;;;;;185.28;69.20;;;;;;;-4.50;83.56;99062.01;1758347;81;21017;-56
2021/12/22 06:46:44;;;;;;;181.22;76.05;;;;;;;-4.47;83.83;99068.30;1744552;80;21409;-56
2021/12/22 06:49:11;;;;;;;154.90;67.22;;;;;;;-4.45;83.94;99069.79;1770303;79;21021;-59
2021/12/22 06:51:38;;;;;;;143.50;61.77;;;;;;;-4.44;83.74;99074.12;1720555;82;21427;-59
2021/12/22 06:54:05;;;;;;;85.53;39.88;;;;;;;-4.40;83.83;99078.59;1754765;80;20945;-58
2021/12/22 06:56:32;;;;;;;73.85;37.40;;;;;;;-4.39;83.63;99081.06;1712494;82;21246;-56
2021/12/22 06:59:00;;;;;;;155.32;55.73;;;;;;;-4.39;83.53;99083.72;1749884;80;20962;-56
2021/12/22 07:01:31;;;;;;;105.12;44.05;;;;;;;-4.38;83.55;99078.75;1708376;82;22060;-56
2021/12/22 07:03:57;;;;;;;59.23;28.30;;;;;;;-4.34;83.62;99089.38;1759750;80;21425;-56
2021/12/22 07:06:24;;;;;;;54.75;27.02;;;;;;;-4.32;83.41;99094.50;1760851;80;21000;-56
2021/12/22 07:08:51;;;;;;;74.55;38.65;;;;;;;-4.34;83.43;99088.55;1755612;80;20970;-56
2021/12/22 07:11:18;;;;;;;75.92;34.65;;;;;;;-4.39;83.28;99095.63;1767232;80;20954;-56
2021/12/22 07:13:45;;;;;;;57.25;28.50;;;;;;;-4.40;83.29;99100.59;1757096;80;20981;-56
2021/12/22 07:16:13;;;;;;;64.60;27.50;;;;;;;-4.41;83.37;99093.64;1776452;80;21461;-56
2021/12/22 07:18:40;;;;;;;68.80;31.65;;;;;;;-4.40;83.25;99094.47;1737075;81;20989;-56
2021/12/22 07:21:07;;;;;;;110.15;49.98;;;;;;;-4.46;83.31;99096.41;1732348;81;20993;-56
2021/12/22 07:23:34;;;;;;;156.32;69.53;;;;;;;-4.42;83.46;99099.09;1742494;81;20984;-56
2021/12/22 07:26:01;;;;;;;142.95;69.85;;;;;;;-4.45;83.52;99092.28;1758781;79;20977;-56
2021/12/22 07:28:28;;;;;;;143.30;63.73;;;;;;;-4.39;83.61;99104.05;1734095;82;21359;-56
2021/12/22 07:30:55;;;;;;;132.03;69.27;;;;;;;-4.36;83.62;99104.59;1770025;80;20980;-56
2021/12/22 07:33:22;;;;;;;154.42;80.28;;;;;;;-4.32;84.00;99109.89;1756774;80;21461;-56
2021/12/22 07:36:04;;;;;;;129.23;60.38;;;;;;;-4.26;83.90;99107.94;1752463;80;21013;-56
2021/12/22 07:38:57;;;;;;;104.43;49.63;;;;;;;-4.18;83.83;99107.64;1745291;81;21397;-56
2021/12/22 07:41:23;;;;;;;75.37;34.03;;;;;;;-4.14;83.98;99113.77;1737341;81;21681;-56
2021/12/22 07:43:51;;;;;;;102.58;45.67;;;;;;;-4.13;84.07;99113.27;1732120;80;20936;-56
2021/12/22 07:46:18;;;;;;;99.83;44.45;;;;;;;-4.13;83.68;99124.69;1733964;81;21064;-56
2021/12/22 07:48:45;;;;;;;98.65;45.95;;;;;;;-4.15;83.69;99125.34;1739349;80;21127;-56
2021/12/22 07:51:13;;;;;;;119.65;56.98;;;;;;;-4.23;83.54;99124.48;1764670;79;20974;-56
2021/12/22 07:53:39;;;;;;;102.62;53.68;;;;;;;-4.26;83.88;99125.14;1762229;80;21056;-56
2021/12/22 07:56:06;;;;;;;120.82;57.15;;;;;;;-4.22;83.93;99126.97;1758242;80;21462;-55
2021/12/22 07:58:33;;;;;;;112.42;50.48;;;;;;;-4.21;83.90;99126.47;1763325;79;21032;-56
2021/12/22 08:01:00;;;;;;;105.12;50.83;;;;;;;-4.14;83.92;99129.66;1769517;79;20978;-56
2021/12/22 08:03:27;;;;;;;94.13;41.63;;;;;;;-4.19;83.89;99129.78;1759475;80;21100;-56
2021/12/22 08:05:55;;;;;;;101.25;43.70;;;;;;;-4.20;83.80;99125.48;1759424;80;21662;-57
2021/12/22 08:08:21;;;;;;;116.15;49.40;;;;;;;-4.21;84.09;99127.30;1727062;81;21492;-56
2021/12/22 08:10:48;;;;;;;81.12;36.55;;;;;;;-4.22;83.90;99132.76;1754490;80;21037;-56
2021/12/22 08:13:15;;;;;;;128.25;44.93;;;;;;;-4.20;84.08;99131.60;1759174;80;22265;-56
2021/12/22 08:15:43;;;;;;;95.50;42.85;;;;;;;-4.19;83.95;99131.93;1769305;79;21518;-57
2021/12/22 08:18:10;;;;;;;79.53;35.15;;;;;;;-4.14;84.16;99132.30;1724995;82;21783;-56
2021/12/22 08:20:37;;;;;;;149.35;58.02;;;;;;;-4.07;84.20;99135.15;1726445;82;21453;-56
2021/12/22 08:23:04;;;;;;;96.67;41.68;;;;;;;-4.05;84.10;99132.66;1737672;82;21000;-57
2021/12/22 08:25:31;;;;;;;100.45;41.80;;;;;;;-3.98;84.14;99140.31;1728321;82;21028;-57
2021/12/22 08:27:58;;;;;;;64.72;33.67;;;;;;;-3.92;84.16;99139.35;1763295;80;20961;-56
2021/12/22 08:30:27;;;;;;;99.42;46.73;;;;;;;-3.86;84.14;99140.02;1766551;79;21436;-55
2021/12/22 08:32:55;;;;;;;83.55;37.33;;;;;;;-3.80;84.02;99132.76;1761797;79;21578;-57
2021/12/22 08:35:25;;;;;;;70.90;33.80;;;;;;;-3.81;83.97;99133.25;1725300;82;28181;-56
2021/12/22 08:40:36;;;;;;;89.77;40.10;;;;;;;-3.88;83.77;99149.45;1728999;82;21044;-56
2021/12/22 08:43:03;;;;;;;56.45;28.02;;;;;;;-3.89;84.00;99149.12;1763390;80;21288;-56
2021/12/22 08:45:30;;;;;;;53.17;26.33;;;;;;;-3.84;83.94;99153.95;1743989;80;21063;-56
2021/12/22 08:47:57;;;;;;;53.85;25.57;;;;;;;-3.87;84.15;99150.27;1753701;80;20972;-56
2021/12/22 08:50:24;;;;;;;62.90;30.77;;;;;;;-3.82;84.08;99154.61;1735295;81;21507;-56
2021/12/22 08:52:51;;;;;;;64.37;31.68;;;;;;;-3.80;83.97;99153.45;1737497;81;20996;-56
2021/12/22 08:55:20;;;;;;;56.68;27.05;;;;;;;-3.80;83.94;99155.27;1729950;80;21095;-56
2021/12/22 08:57:47;;;;;;;60.08;29.67;;;;;;;-3.87;83.90;99157.72;1735634;81;21725;-57
2021/12/22 09:00:14;;;;;;;66.72;29.05;;;;;;;-3.94;83.97;99158.02;1752533;80;20989;-55
2021/12/22 09:02:41;;;;;;;55.80;25.82;;;;;;;-3.93;84.03;99159.70;1746489;80;21484;-57
2021/12/22 09:05:08;;;;;;;106.20;41.83;;;;;;;-3.90;84.10;99154.58;1761793;80;21072;-56
2021/12/22 09:07:35;;;;;;;122.75;51.58;;;;;;;-3.94;83.99;99158.02;1769369;79;20954;-56
2021/12/22 09:10:03;;;;;;;81.02;34.88;;;;;;;-3.99;84.12;99160.34;1770800;79;21092;-56
2021/12/22 09:12:30;;;;;;;89.55;41.48;;;;;;;-3.98;84.20;99158.84;1761724;79;21065;-56
2021/12/22 09:14:57;;;;;;;139.30;66.35;;;;;;;-4.01;84.24;99159.67;1764962;79;21576;-57
2021/12/22 09:17:25;;;;;;;99.03;51.40;;;;;;;-4.05;84.44;99167.09;1765787;79;21035;-57
2021/12/22 09:19:53;;;;;;;51.98;27.42;;;;;;;-4.06;84.46;99171.22;1761815;79;21024;-56
2021/12/22 09:22:21;;;;;;;50.80;19.52;;;;;;;-4.02;84.72;99164.61;1759344;79;21091;-55
2021/12/22 09:24:48;;;;;;;190.70;66.33;;;;;;;-4.03;85.03;99169.08;1771890;79;21021;-57
2021/12/22 09:27:15;;;;;;;229.85;79.58;;;;;;;-3.98;84.95;99164.14;1758835;80;21078;-57
2021/12/22 09:29:42;;;;;;;122.55;44.53;;;;;;;-3.89;85.49;99170.30;1721801;82;21459;-57
2021/12/22 09:32:14;;;;;;;144.95;52.33;;;;;;;-3.80;85.32;99166.70;1726391;81;21642;-56
2021/12/22 09:34:39;;;;;;;83.42;38.23;;;;;;;-3.72;84.96;99170.70;1760404;80;20958;-56
2021/12/22 09:37:06;;;;;;;106.43;49.10;;;;;;;-3.63;84.96;99172.05;1733316;81;21560;-56
2021/12/22 09:39:33;;;;;;;100.47;45.88;;;;;;;-3.56;84.82;99171.25;1731768;82;21151;-56
2021/12/22 09:42:00;;;;;;;59.60;28.45;;;;;;;-3.46;84.95;99167.12;1723228;82;21037;-56
2021/12/22 09:44:31;;;;;;;59.95;30.30;;;;;;;-3.42;84.62;99169.77;1730354;81;21083;-56
2021/12/22 09:46:56;;;;;;;81.60;38.75;;;;;;;-3.39;84.82;99163.34;1732222;81;20981;-56
2021/12/22 09:52:21;;;;;;;120.85;50.73;;;;;;;-3.26;84.74;99161.85;1738438;81;21023;-56
2021/12/22 09:54:51;;;;;;;56.48;25.32;;;;;;;-3.29;84.53;99161.36;1736041;81;21414;-57
2021/12/22 09:57:19;;;;;;;63.75;30.65;;;;;;;-3.28;84.59;99161.19;1733986;82;21114;-57
2021/12/22 09:59:47;;;;;;;321.43;102.45;;;;;;;-3.36;84.65;99169.13;1757200;80;21040;-57
2021/12/22 10:02:15;;;;;;;80.70;42.13;;;;;;;-3.31;84.82;99162.86;1752226;80;20977;-56
2021/12/22 10:04:42;;;;;;;162.90;58.98;;;;;;;-3.27;84.67;99164.67;1736994;80;21054;-57
2021/12/22 10:07:15;;;;;;;177.68;71.17;;;;;;;-3.28;84.55;99165.17;1756287;80;20984;-56
2021/12/22 10:09:43;;;;;;;99.47;44.13;;;;;;;-3.28;84.66;99165.17;1730250;80;21647;-57
2021/12/22 10:12:22;;;;;;;111.72;48.75;;;;;;;-3.31;84.63;99169.48;1724190;82;21029;-56
2021/12/22 10:14:58;;;;;;;94.97;47.38;;;;;;;-3.25;84.74;99167.48;1724322;82;21067;-56
2021/12/22 10:17:37;;;;;;;73.52;36.68;;;;;;;-3.18;84.94;99163.19;1725648;81;20992;-56
2021/12/22 10:20:12;;;;;;;69.92;32.95;;;;;;;-3.10;84.60;99168.17;1725219;82;26514;-55
2021/12/22 10:22:45;;;;;;;58.08;28.00;;;;;;;-3.07;84.51;99160.73;1700548;82;21167;-56
2021/12/22 10:25:18;;;;;;;79.72;41.45;;;;;;;-3.07;84.24;99164.72;1770888;79;21527;-55
2021/12/22 10:27:59;;;;;;;57.98;29.30;;;;;;;-3.13;84.33;99152.93;1752490;80;21534;-56
2021/12/22 10:30:37;;;;;;;71.20;32.10;;;;;;;-3.13;84.40;99150.28;1759099;80;23002;-56
2021/12/22 10:33:20;;;;;;;112.22;48.17;;;;;;;-3.03;84.55;99147.96;1764831;80;20973;-55
2021/12/22 10:35:53;;;;;;;114.92;57.20;;;;;;;-2.99;84.42;99151.92;1767279;79;21555;-56
2021/12/22 10:38:23;;;;;;;108.80;48.05;;;;;;;-3.01;84.36;99145.47;1758883;80;21020;-56
2021/12/22 10:40:54;;;;;;;100.00;45.63;;;;;;;-3.00;84.38;99149.77;1762331;79;21779;-56
2021/12/22 10:43:28;;;;;;;100.07;45.78;;;;;;;-3.02;84.33;99142.48;1724925;82;20973;-56
2021/12/22 10:45:59;;;;;;;148.72;61.83;;;;;;;-3.07;84.40;99147.98;1731152;82;21041;-56
2021/12/22 10:51:30;;;;;;;151.95;61.23;;;;;;;-3.00;84.76;99143.14;1726849;81;21057;-56
2021/12/22 10:53:58;;;;;;;72.65;35.13;;;;;;;-2.96;84.62;99141.83;1726494;81;21446;-56
2021/12/22 10:56:35;;;;;;;92.08;39.38;;;;;;;-2.96;84.57;99147.14;1737284;82;21485;-55
2021/12/22 10:59:09;;;;;;;74.87;35.75;;;;;;;-2.90;84.64;99148.31;1735296;81;21061;-57
2021/12/22 11:01:41;;;;;;;71.07;34.67;;;;;;;-2.79;84.78;99143.16;1756551;80;22257;-57
2021/12/22 11:04:15;;;;;;;110.10;48.40;;;;;;;-2.74;84.30;99145.62;1758664;79;20954;-57
2021/12/22 11:06:42;;;;;;;108.78;50.30;;;;;;;-2.67;84.26;99145.28;1760879;80;20957;-57
2021/12/22 11:09:14;;;;;;;84.65;41.53;;;;;;;-2.58;84.26;99143.45;1773359;80;21068;-57
2021/12/22 11:11:54;;;;;;;66.28;34.63;;;;;;;-2.45;84.22;99145.09;1773226;80;22344;-56
2021/12/22 11:14:26;;;;;;;72.67;34.80;;;;;;;-2.35;83.72;99142.25;1735697;82;21059;-57
2021/12/22 11:17:11;;;;;;;67.00;35.55;;;;;;;-2.40;83.58;99132.13;1764750;80;20989;-56
2021/12/22 11:19:54;;;;;;;78.45;37.60;;;;;;;-2.30;83.80;99139.93;1765069;80;20980;-56
2021/12/22 11:22:35;;;;;;;104.40;43.80;;;;;;;-2.21;83.86;99136.25;1751352;80;21386;-57
2021/12/22 11:24:52;;;;;;;225.28;80.67;;;;;;;-2.11;83.66;99135.55;1714997;83;21009;-57
2021/12/22 11:27:22;;;;;;;134.07;51.02;;;;;;;-2.05;83.33;99128.70;1759195;81;21399;-56
2021/12/22 11:29:52;;;;;;;161.15;64.15;;;;;;;-1.97;83.40;99131.83;1757432;80;21028;-56
2021/12/22 11:32:24;;;;;;;177.65;60.80;;;;;;;-1.84;83.57;99132.94;1757975;79;21074;-57
2021/12/22 11:34:55;;;;;;;42.25;19.95;;;;;;;-1.72;83.52;99126.73;1758698;80;21440;-56
2021/12/22 11:37:22;;;;;;;34.27;15.55;;;;;;;-1.92;77.56;99128.16;1767593;80;20976;-56